Time;durP1;ratioP1;P1;durP2;ratioP2;P2;SDS_P1;SDS_P2;PMS_P1;PMS_P2;Temp;Humidity;BMP_temperature;BMP_pressure;BME280_temperature;BME280_humidity;BME280_pressure;Samples;Min_cycle;Max_cycle;Signal;HPM_P1;HPM_P2
2023/07/16 00:01:18;;;;;;;6.27;5.77;;;;;;;18.86;100.00;100615.78;5022519;28;20514;-43
2023/07/16 00:03:46;;;;;;;5.33;4.93;;;;;;;18.82;100.00;100623.59;5040571;28;20431;-42
2023/07/16 00:06:14;;;;;;;5.60;5.10;;;;;;;18.82;100.00;100631.69;5047935;28;20427;-44
2023/07/16 00:08:43;;;;;;;6.10;5.70;;;;;;;18.79;100.00;100656.50;5040040;28;20442;-45
2023/07/16 00:11:11;;;;;;;7.23;6.10;;;;;;;18.73;100.00;100655.63;5046782;28;21012;-42
2023/07/16 00:13:41;;;;;;;6.00;5.23;;;;;;;18.68;100.00;100639.38;5027693;28;20984;-41
2023/07/16 00:16:08;;;;;;;6.47;5.80;;;;;;;18.63;100.00;100633.09;5048123;28;20937;-41
2023/07/16 00:18:36;;;;;;;6.10;5.50;;;;;;;18.63;100.00;100617.72;5047836;28;20437;-42
2023/07/16 00:21:04;;;;;;;6.33;5.63;;;;;;;18.66;100.00;100619.09;5048064;28;20453;-42
2023/07/16 00:23:31;;;;;;;7.50;6.17;;;;;;;18.59;100.00;100627.38;5016713;28;20492;-41
2023/07/16 00:26:00;;;;;;;6.70;6.30;;;;;;;18.58;100.00;100625.75;5047398;28;21167;-42
2023/07/16 00:28:28;;;;;;;7.37;6.10;;;;;;;18.53;100.00;100614.88;5047981;28;20522;-42
2023/07/16 00:30:56;;;;;;;6.90;5.70;;;;;;;18.49;100.00;100637.22;5047895;28;20438;-41
2023/07/16 00:33:24;;;;;;;6.47;6.07;;;;;;;18.48;100.00;100631.00;5017905;28;20509;-42
2023/07/16 00:35:51;;;;;;;6.27;5.80;;;;;;;18.49;100.00;100623.72;5037993;28;20431;-42
2023/07/16 00:38:20;;;;;;;6.50;6.00;;;;;;;18.47;100.00;100615.03;5047433;28;20431;-41
2023/07/16 00:40:48;;;;;;;7.43;6.80;;;;;;;18.50;100.00;100628.88;5047365;28;20517;-41
2023/07/16 00:43:17;;;;;;;6.73;6.30;;;;;;;18.50;100.00;100636.16;5046567;28;21071;-43
2023/07/16 00:45:46;;;;;;;6.80;6.30;;;;;;;18.47;100.00;100642.03;5025318;28;20481;-44
2023/07/16 00:48:14;;;;;;;6.37;5.97;;;;;;;18.47;100.00;100648.25;5047454;28;20423;-41
2023/07/16 00:50:42;;;;;;;6.60;5.93;;;;;;;18.48;100.00;100657.19;5048272;28;20489;-42
2023/07/16 00:53:11;;;;;;;7.30;6.70;;;;;;;18.43;100.00;100670.63;5042814;28;20530;-45
2023/07/16 00:55:39;;;;;;;8.00;6.60;;;;;;;18.42;100.00;100672.50;5007721;28;20466;-41
2023/07/16 00:58:08;;;;;;;6.43;6.03;;;;;;;18.35;100.00;100658.34;5047448;28;20933;-41
2023/07/16 01:00:38;;;;;;;6.60;5.87;;;;;;;18.38;100.00;100662.44;5047682;28;20528;-42
2023/07/16 01:03:09;;;;;;;10.97;7.20;;;;;;;18.37;100.00;100652.72;5045514;28;20467;-41
2023/07/16 01:05:45;;;;;;;9.93;6.37;;;;;;;18.35;100.00;100635.94;5020319;28;20524;-42
2023/07/16 01:08:15;;;;;;;6.00;5.70;;;;;;;18.35;100.00;100631.34;5046781;28;20480;-42
2023/07/16 01:10:44;;;;;;;7.00;5.57;;;;;;;18.35;100.00;100612.47;5048057;28;20428;-43
2023/07/16 01:13:12;;;;;;;6.60;6.10;;;;;;;18.37;100.00;100604.13;5046850;28;21072;-42
2023/07/16 01:15:41;;;;;;;6.27;5.77;;;;;;;18.35;100.00;100609.75;5021944;28;20540;-42
2023/07/16 01:18:09;;;;;;;6.97;6.47;;;;;;;18.35;100.00;100620.56;5046703;28;20441;-42
2023/07/16 01:20:37;;;;;;;7.13;6.63;;;;;;;18.34;100.00;100634.31;5049954;28;20470;-44
2023/07/16 01:23:17;;;;;;;7.10;6.13;;;;;;;18.33;100.00;100641.59;5044080;28;20462;-44
2023/07/16 01:26:02;;;;;;;7.53;6.40;;;;;;;18.25;100.00;100632.03;5020248;28;20460;-42
2023/07/16 01:28:45;;;;;;;6.53;5.97;;;;;;;18.27;100.00;100614.78;5051373;28;21141;-42
2023/07/16 01:31:16;;;;;;;7.07;6.67;;;;;;;18.27;100.00;100602.09;5050322;28;20512;-45
2023/07/16 01:33:45;;;;;;;7.40;7.00;;;;;;;18.27;100.00;100612.09;5052317;28;20431;-42
2023/07/16 01:36:14;;;;;;;8.50;7.80;;;;;;;18.22;100.00;100610.94;5030470;28;20462;-41
2023/07/16 01:38:42;;;;;;;7.40;7.00;;;;;;;18.20;100.00;100607.69;5052016;28;20427;-42
2023/07/16 01:41:11;;;;;;;8.63;8.03;;;;;;;18.20;100.00;100615.78;5051051;28;20467;-40
2023/07/16 01:43:40;;;;;;;7.20;6.80;;;;;;;18.14;100.00;100621.34;5050802;28;20419;-41
2023/07/16 01:46:07;;;;;;;8.07;7.27;;;;;;;18.15;100.00;100620.28;5023028;28;20446;-40
2023/07/16 01:48:38;;;;;;;7.30;6.90;;;;;;;18.15;100.00;100625.69;5051755;28;20473;-41
2023/07/16 01:51:06;;;;;;;8.03;7.53;;;;;;;18.13;100.00;100611.63;5052405;28;20445;-41
2023/07/16 01:53:34;;;;;;;7.80;7.27;;;;;;;18.16;100.00;100620.03;5041022;28;20920;-41
2023/07/16 01:56:03;;;;;;;7.80;7.30;;;;;;;18.18;100.00;100636.00;5019555;28;20451;-43
2023/07/16 01:58:31;;;;;;;8.67;7.90;;;;;;;18.15;100.00;100636.50;5038202;28;20423;-42
2023/07/16 02:01:00;;;;;;;8.40;7.80;;;;;;;18.14;100.00;100642.94;5040173;28;20475;-40
2023/07/16 02:03:29;;;;;;;8.20;7.70;;;;;;;18.09;100.00;100637.47;5038505;28;20451;-40
2023/07/16 02:05:58;;;;;;;7.67;7.13;;;;;;;18.09;100.00;100640.19;5016791;28;21245;-41
2023/07/16 02:08:27;;;;;;;7.70;7.40;;;;;;;18.12;100.00;100640.50;5039865;28;20463;-42
2023/07/16 02:10:55;;;;;;;8.47;7.77;;;;;;;18.10;100.00;100647.19;5041000;28;20438;-42
2023/07/16 02:13:23;;;;;;;8.40;7.67;;;;;;;18.08;100.00;100652.84;5016185;28;20524;-43
2023/07/16 02:15:51;;;;;;;8.50;7.90;;;;;;;18.11;100.00;100654.22;5030968;28;20470;-42
2023/07/16 02:18:19;;;;;;;7.73;7.33;;;;;;;18.08;100.00;100660.94;5048554;28;20431;-41
2023/07/16 02:20:46;;;;;;;8.70;8.00;;;;;;;18.06;100.00;100648.78;5031345;28;20467;-42
2023/07/16 02:23:15;;;;;;;7.70;7.30;;;;;;;18.04;100.00;100649.00;5035820;28;20825;-42
2023/07/16 02:25:43;;;;;;;8.77;7.90;;;;;;;18.05;100.00;100653.34;5041326;28;20790;-41
2023/07/16 02:28:11;;;;;;;8.40;8.00;;;;;;;18.05;100.00;100671.41;5040463;28;20784;-43
2023/07/16 02:30:41;;;;;;;7.97;7.47;;;;;;;18.02;100.00;100664.63;5043367;28;20566;-41
2023/07/16 02:33:09;;;;;;;7.80;7.30;;;;;;;17.99;100.00;100669.69;5043646;28;20455;-44
2023/07/16 02:35:37;;;;;;;8.60;8.20;;;;;;;17.96;100.00;100676.41;5045553;28;20466;-45
2023/07/16 02:38:04;;;;;;;8.87;8.23;;;;;;;17.91;100.00;100680.91;5038872;28;20539;-42
2023/07/16 02:40:33;;;;;;;8.30;7.80;;;;;;;17.90;100.00;100687.38;5042976;28;20562;-42
2023/07/16 02:43:01;;;;;;;8.27;7.57;;;;;;;17.82;100.00;100683.22;5050366;28;20457;-42
2023/07/16 02:45:28;;;;;;;8.03;7.63;;;;;;;17.77;100.00;100677.72;5049116;28;20516;-43
2023/07/16 02:47:56;;;;;;;8.47;8.07;;;;;;;17.72;100.00;100687.59;5050037;28;20435;-42
2023/07/16 02:50:24;;;;;;;8.17;7.57;;;;;;;17.71;100.00;100694.09;5036764;28;20439;-43
2023/07/16 02:52:51;;;;;;;8.90;7.90;;;;;;;17.67;100.00;100702.66;5048998;28;20450;-42
2023/07/16 02:55:19;;;;;;;8.83;8.33;;;;;;;17.64;100.00;100697.75;5047294;28;20542;-42
2023/07/16 02:57:48;;;;;;;8.83;8.10;;;;;;;17.61;100.00;100690.16;5040020;28;20521;-46
2023/07/16 03:00:16;;;;;;;8.33;7.83;;;;;;;17.62;100.00;100696.38;5035391;28;20527;-41
2023/07/16 03:02:44;;;;;;;9.40;8.50;;;;;;;17.61;100.00;100700.13;5031967;28;20548;-42
2023/07/16 03:05:12;;;;;;;9.00;8.13;;;;;;;17.59;100.00;100691.47;5047791;28;20455;-42
2023/07/16 03:07:39;;;;;;;9.27;8.20;;;;;;;17.60;100.00;100695.78;5048907;28;20424;-41
2023/07/16 03:10:08;;;;;;;9.10;8.60;;;;;;;17.60;100.00;100693.91;5042630;28;20429;-42
2023/07/16 03:12:36;;;;;;;9.40;8.80;;;;;;;17.57;100.00;100691.69;5040012;28;20458;-42
2023/07/16 03:15:06;;;;;;;8.97;8.20;;;;;;;17.57;100.00;100696.25;5041361;28;20479;-43
2023/07/16 03:17:34;;;;;;;11.07;9.27;;;;;;;17.56;100.00;100697.34;5050011;28;20485;-43
2023/07/16 03:20:03;;;;;;;10.37;9.47;;;;;;;17.53;100.00;100684.31;5049075;28;20439;-41
2023/07/16 03:22:31;;;;;;;10.33;9.17;;;;;;;17.51;100.00;100684.53;5048339;28;20884;-44
2023/07/16 03:24:58;;;;;;;9.03;8.27;;;;;;;17.53;100.00;100678.91;5047920;28;20529;-40
2023/07/16 03:27:26;;;;;;;9.67;8.97;;;;;;;17.53;100.00;100678.91;5047861;28;20523;-41
2023/07/16 03:29:54;;;;;;;8.80;8.00;;;;;;;17.53;100.00;100687.00;5048471;28;20447;-42
2023/07/16 03:32:23;;;;;;;9.63;8.77;;;;;;;17.55;100.00;100685.72;5050395;28;20490;-43
2023/07/16 03:35:01;;;;;;;9.40;8.50;;;;;;;17.54;100.00;100683.22;5050338;28;20459;-43
2023/07/16 03:37:28;;;;;;;9.87;9.00;;;;;;;17.56;100.00;100686.56;5045570;28;20439;-42
2023/07/16 03:39:56;;;;;;;9.17;8.73;;;;;;;17.56;100.00;100686.56;5047964;28;20438;-41
2023/07/16 03:42:24;;;;;;;9.37;8.57;;;;;;;17.59;100.00;100691.47;5046735;28;20483;-42
2023/07/16 03:44:51;;;;;;;8.80;8.17;;;;;;;17.58;100.00;100684.41;5037707;28;20972;-49
2023/07/16 03:47:19;;;;;;;10.00;9.27;;;;;;;17.60;100.00;100680.41;5030615;28;20438;-41
2023/07/16 03:49:48;;;;;;;8.60;8.00;;;;;;;17.61;100.00;100682.06;5044145;28;20439;-41
2023/07/16 03:52:16;;;;;;;9.57;8.73;;;;;;;17.63;100.00;100684.50;5047526;28;21247;-42
2023/07/16 03:54:44;;;;;;;9.17;8.43;;;;;;;17.64;100.00;100678.06;5047398;28;20490;-42
2023/07/16 03:57:11;;;;;;;9.07;8.53;;;;;;;17.68;100.00;100666.53;5040840;28;20530;-41
2023/07/16 03:59:39;;;;;;;10.13;9.23;;;;;;;17.69;100.00;100668.16;5033759;28;20436;-41
2023/07/16 04:02:06;;;;;;;12.27;9.63;;;;;;;17.68;100.00;100674.59;5032241;28;20534;-44
2023/07/16 04:04:35;;;;;;;9.53;8.93;;;;;;;17.67;100.00;100678.38;5034297;28;20431;-41
2023/07/16 04:07:04;;;;;;;10.10;9.40;;;;;;;17.71;100.00;100678.72;5047912;28;20435;-41
2023/07/16 04:09:32;;;;;;;10.00;9.30;;;;;;;17.73;100.00;100673.88;5047388;28;20493;-42
2023/07/16 04:12:00;;;;;;;9.10;8.50;;;;;;;17.77;100.00;100685.81;5047071;28;21219;-42
2023/07/16 04:14:27;;;;;;;9.60;8.90;;;;;;;17.82;100.00;100683.22;5039277;28;20440;-42
2023/07/16 04:16:55;;;;;;;9.87;8.97;;;;;;;17.92;100.00;100686.06;5042656;28;20856;-44
2023/07/16 04:19:23;;;;;;;10.43;9.50;;;;;;;18.01;100.00;100694.56;5039150;28;20529;-41
2023/07/16 04:21:51;;;;;;;10.57;9.90;;;;;;;18.12;100.00;100690.97;5037090;28;21006;-41
2023/07/16 04:24:20;;;;;;;13.60;9.20;;;;;;;18.23;100.00;100685.47;5045992;28;20454;-46
2023/07/16 04:26:47;;;;;;;10.00;9.30;;;;;;;18.55;100.00;100679.44;5042411;28;20447;-41
2023/07/16 04:29:15;;;;;;;10.30;9.60;;;;;;;18.80;100.00;100682.47;5048765;28;20466;-42
2023/07/16 04:31:45;;;;;;;10.37;9.70;;;;;;;19.35;100.00;100685.78;5048557;28;20451;-42
2023/07/16 04:34:13;;;;;;;10.83;9.90;;;;;;;20.46;100.00;100679.66;5047470;28;21199;-43
2023/07/16 04:36:43;;;;;;;10.63;9.73;;;;;;;21.27;100.00;100675.34;5046911;28;20462;-42
2023/07/16 04:39:11;;;;;;;10.73;10.23;;;;;;;21.89;100.00;100669.75;5041005;28;20462;-41
2023/07/16 04:41:40;;;;;;;9.70;9.20;;;;;;;22.21;100.00;100664.81;5028299;28;20558;-44
2023/07/16 04:44:08;;;;;;;10.43;9.70;;;;;;;23.12;100.00;100664.44;5031669;28;20921;-43
2023/07/16 04:46:36;;;;;;;8.80;8.23;;;;;;;23.60;100.00;100662.78;5047240;28;20486;-42
2023/07/16 04:49:05;;;;;;;9.50;8.90;;;;;;;23.48;100.00;100660.44;5047640;28;20454;-42
2023/07/16 04:51:33;;;;;;;9.07;8.27;;;;;;;22.71;100.00;100663.03;5047780;28;20949;-43
2023/07/16 04:54:04;;;;;;;8.83;7.97;;;;;;;23.83;100.00;100650.34;5049732;28;20453;-41
2023/07/16 04:56:32;;;;;;;8.20;7.70;;;;;;;24.46;100.00;100653.81;5050110;28;20497;-44
2023/07/16 04:59:01;;;;;;;7.93;7.40;;;;;;;25.16;100.00;100649.38;5051489;28;20431;-41
2023/07/16 05:01:28;;;;;;;7.33;6.73;;;;;;;25.92;100.00;100659.09;5051364;28;20474;-45
2023/07/16 05:03:56;;;;;;;6.80;6.20;;;;;;;26.50;96.52;100662.94;5052734;28;20457;-43
2023/07/16 05:06:24;;;;;;;6.50;6.10;;;;;;;27.08;96.02;100663.09;5052003;28;20497;-49
2023/07/16 05:08:52;;;;;;;8.03;5.83;;;;;;;27.42;84.77;100679.03;5040633;28;20466;-43
2023/07/16 05:11:21;;;;;;;5.70;5.17;;;;;;;27.69;72.16;100680.84;5051015;28;20446;-43
2023/07/16 05:13:49;;;;;;;5.60;5.20;;;;;;;27.74;76.64;100680.75;5051200;28;20431;-46
2023/07/16 05:16:18;;;;;;;7.27;5.90;;;;;;;27.97;72.42;100676.84;5051690;28;20462;-42
2023/07/16 05:18:47;;;;;;;6.63;5.40;;;;;;;28.29;65.62;100678.50;5051887;28;20426;-48
2023/07/16 05:21:15;;;;;;;6.20;5.70;;;;;;;28.54;70.25;100677.81;5050243;28;20438;-43
2023/07/16 05:23:42;;;;;;;5.80;5.40;;;;;;;28.76;62.74;100668.69;5050134;28;20474;-48
2023/07/16 05:26:10;;;;;;;7.07;5.50;;;;;;;29.06;62.43;100678.78;5050369;28;20770;-46
2023/07/16 05:28:38;;;;;;;5.90;5.50;;;;;;;29.32;58.17;100678.81;5050491;28;20431;-43
2023/07/16 05:31:05;;;;;;;6.70;5.30;;;;;;;29.55;59.75;100683.81;5050142;28;20208;-42
2023/07/16 05:33:34;;;;;;;7.40;5.60;;;;;;;29.74;61.54;100680.72;5050752;28;20213;-43
2023/07/16 05:36:02;;;;;;;6.53;5.53;;;;;;;29.58;53.81;100688.66;5052122;28;20598;-46
2023/07/16 05:38:30;;;;;;;6.23;5.73;;;;;;;29.79;53.61;100679.75;5051743;28;20188;-42
2023/07/16 05:41:01;;;;;;;6.50;6.00;;;;;;;29.69;53.73;100678.13;5051500;28;20658;-43
2023/07/16 05:43:29;;;;;;;6.03;5.37;;;;;;;29.65;54.51;100685.44;5052126;28;20379;-47
2023/07/16 05:45:57;;;;;;;8.70;6.10;;;;;;;29.45;51.73;100681.38;5049978;28;20269;-43
2023/07/16 05:48:25;;;;;;;12.00;5.80;;;;;;;29.25;54.12;100686.72;5049972;28;20222;-47
2023/07/16 05:50:54;;;;;;;7.07;5.07;;;;;;;29.24;52.47;100683.16;5050149;28;20205;-46
2023/07/16 05:53:22;;;;;;;6.93;6.20;;;;;;;29.52;52.58;100694.66;5050055;28;20216;-46
2023/07/16 05:55:51;;;;;;;7.00;6.30;;;;;;;29.73;51.94;100698.34;5051167;28;20221;-48
2023/07/16 05:58:19;;;;;;;7.47;6.07;;;;;;;29.90;52.53;100687.34;5050201;28;20223;-44
2023/07/16 06:00:47;;;;;;;6.47;5.87;;;;;;;30.07;51.98;100698.34;5051389;28;20678;-47
2023/07/16 06:03:16;;;;;;;6.53;6.00;;;;;;;30.41;51.07;100699.34;5048951;28;20269;-43
2023/07/16 06:05:44;;;;;;;6.83;6.17;;;;;;;30.17;48.57;100697.16;5048950;28;20285;-42
2023/07/16 06:08:13;;;;;;;5.90;5.37;;;;;;;30.37;48.95;100712.97;5050554;28;20250;-42
2023/07/16 06:10:41;;;;;;;6.93;6.40;;;;;;;30.69;47.38;100703.28;5052677;28;20204;-42
2023/07/16 06:13:09;;;;;;;6.40;5.33;;;;;;;30.30;46.95;100698.91;5051933;28;20455;-42
2023/07/16 06:15:37;;;;;;;6.30;5.70;;;;;;;30.40;46.05;100700.50;5051950;28;20220;-44
2023/07/16 06:18:05;;;;;;;6.00;5.60;;;;;;;30.93;45.48;100708.16;5052240;28;20677;-43
2023/07/16 06:20:33;;;;;;;8.30;5.63;;;;;;;31.18;45.49;100710.78;5050865;28;20204;-46
2023/07/16 06:23:00;;;;;;;6.40;5.45;;;;;;;31.13;45.05;100705.47;5050934;28;21012;-44
2023/07/16 06:25:30;;;;;;;5.93;5.33;;;;;;;31.05;45.53;100703.59;5048743;28;20220;-48
2023/07/16 06:27:57;;;;;;;4.93;4.53;;;;;;;31.14;45.59;100706.28;5051854;28;20226;-43
2023/07/16 06:30:25;;;;;;;5.22;4.75;;;;;;;31.18;45.06;100707.25;5051305;28;20196;-46
2023/07/16 06:32:54;;;;;;;5.35;4.93;;;;;;;31.57;45.18;100714.25;5052501;28;20286;-45
2023/07/16 06:35:23;;;;;;;6.35;5.72;;;;;;;30.97;44.75;100693.44;5044971;28;20220;-42
2023/07/16 06:37:51;;;;;;;6.10;5.35;;;;;;;31.13;45.32;100712.94;5051338;28;20566;-46
2023/07/16 06:40:19;;;;;;;6.78;5.22;;;;;;;30.93;46.27;100713.69;5050745;28;20261;-42
2023/07/16 06:42:48;;;;;;;5.28;4.78;;;;;;;30.81;45.41;100717.16;5049151;28;20224;-46
2023/07/16 06:45:17;;;;;;;7.80;5.07;;;;;;;30.96;45.18;100707.53;5049003;28;20220;-45
2023/07/16 06:47:45;;;;;;;6.87;5.70;;;;;;;30.97;44.76;100709.16;5049117;28;20614;-44
2023/07/16 06:50:13;;;;;;;5.72;5.32;;;;;;;30.22;44.93;100716.25;5049793;28;20201;-43
2023/07/16 06:52:41;;;;;;;7.30;5.63;;;;;;;30.01;45.96;100718.06;5047876;28;20212;-48
2023/07/16 06:55:09;;;;;;;7.67;5.50;;;;;;;30.17;47.19;100719.16;5050144;28;20342;-46
2023/07/16 06:57:37;;;;;;;6.83;6.13;;;;;;;29.70;46.64;100725.66;5045174;28;20195;-46
2023/07/16 07:00:10;;;;;;;8.57;6.50;;;;;;;29.21;47.33;100716.72;5050116;28;20200;-44
2023/07/16 07:02:39;;;;;;;7.23;6.40;;;;;;;28.05;49.71;100741.91;5050041;28;20232;-44
2023/07/16 07:05:07;;;;;;;6.40;5.80;;;;;;;27.83;51.56;100730.94;5051480;28;20212;-43
2023/07/16 07:07:35;;;;;;;7.43;6.63;;;;;;;27.16;53.78;100739.03;5051855;28;20702;-45
2023/07/16 07:10:03;;;;;;;8.17;5.90;;;;;;;27.49;53.05;100742.44;5046487;28;20255;-43
2023/07/16 07:12:34;;;;;;;7.80;6.40;;;;;;;28.08;52.68;100738.53;5043821;28;20615;-48
2023/07/16 07:15:02;;;;;;;8.63;6.10;;;;;;;28.18;52.89;100743.78;5029817;28;20302;-43
2023/07/16 07:17:31;;;;;;;7.60;6.60;;;;;;;27.90;52.08;100740.34;5030686;28;20288;-44
2023/07/16 07:19:59;;;;;;;7.23;6.57;;;;;;;27.25;53.28;100747.31;5031327;28;20447;-45
2023/07/16 07:22:27;;;;;;;7.93;6.50;;;;;;;27.56;54.75;100737.34;5030990;28;20304;-45
2023/07/16 07:24:54;;;;;;;8.60;7.57;;;;;;;28.12;53.30;100746.97;5030823;28;20912;-45
2023/07/16 07:27:22;;;;;;;7.57;6.27;;;;;;;27.80;51.84;100739.78;5031202;28;20522;-43
2023/07/16 07:29:51;;;;;;;7.57;6.97;;;;;;;27.85;51.74;100736.91;5042167;28;20960;-45
2023/07/16 07:32:20;;;;;;;7.20;6.50;;;;;;;28.39;50.58;100733.09;5035232;28;20483;-48
2023/07/16 07:34:49;;;;;;;7.93;7.13;;;;;;;28.62;49.78;100742.88;5031136;28;20308;-43
2023/07/16 07:37:17;;;;;;;6.90;6.30;;;;;;;28.92;50.56;100731.06;5031119;28;20279;-42
2023/07/16 07:39:47;;;;;;;8.40;6.40;;;;;;;28.85;50.31;100730.69;5028104;28;20211;-43
2023/07/16 07:42:15;;;;;;;6.93;6.33;;;;;;;29.15;49.28;100731.78;5028971;28;20225;-44
2023/07/16 07:44:43;;;;;;;10.57;7.10;;;;;;;28.95;48.95;100738.66;5037121;28;20228;-46
2023/07/16 07:47:10;;;;;;;7.97;7.47;;;;;;;27.93;49.92;100747.13;5070882;28;20295;-43
2023/07/16 07:49:38;;;;;;;7.70;6.97;;;;;;;28.27;50.06;100739.16;5062861;28;20208;-45
2023/07/16 07:52:08;;;;;;;8.57;7.80;;;;;;;28.68;49.56;100743.56;5052637;28;20299;-42
2023/07/16 07:54:36;;;;;;;11.83;7.50;;;;;;;28.84;48.86;100750.25;5066764;28;20187;-46
2023/07/16 07:57:05;;;;;;;10.33;8.27;;;;;;;28.00;50.07;100759.28;5068963;28;20227;-47
2023/07/16 07:59:33;;;;;;;8.27;7.53;;;;;;;28.14;51.31;100742.78;5069974;28;20198;-43
2023/07/16 08:02:01;;;;;;;9.33;6.57;;;;;;;28.33;52.05;100754.34;5068309;28;20450;-41
2023/07/16 08:04:31;;;;;;;8.13;6.70;;;;;;;28.09;49.96;100745.66;5069395;28;20260;-43
2023/07/16 08:06:59;;;;;;;9.23;8.33;;;;;;;27.53;50.52;100768.09;5070226;28;20430;-44
2023/07/16 08:09:28;;;;;;;7.23;6.53;;;;;;;27.01;52.36;100754.94;5073744;28;20192;-43
2023/07/16 08:11:56;;;;;;;7.77;7.17;;;;;;;26.63;52.39;100757.06;5069347;28;20622;-43
2023/07/16 08:14:24;;;;;;;8.10;7.03;;;;;;;26.25;53.99;100770.84;5069971;28;20541;-41
2023/07/16 08:16:52;;;;;;;9.97;7.97;;;;;;;26.14;54.99;100771.28;5070281;28;20516;-43
2023/07/16 08:19:19;;;;;;;12.17;8.67;;;;;;;26.35;56.20;100757.00;5070300;28;20441;-44
2023/07/16 08:21:47;;;;;;;8.00;7.30;;;;;;;26.53;55.74;100760.78;5069083;28;20492;-42
2023/07/16 08:24:15;;;;;;;8.60;7.83;;;;;;;26.27;55.01;100762.34;5069005;28;20531;-44
2023/07/16 08:26:44;;;;;;;8.23;7.50;;;;;;;25.94;54.94;100764.25;5068587;28;20504;-42
2023/07/16 08:29:12;;;;;;;8.60;7.67;;;;;;;25.92;56.04;100762.94;5068562;28;20835;-42
2023/07/16 08:31:41;;;;;;;10.30;7.83;;;;;;;25.45;58.51;100772.88;5051630;28;20453;-41
2023/07/16 08:34:09;;;;;;;8.40;7.60;;;;;;;25.39;58.28;100760.38;5060135;28;20415;-43
2023/07/16 08:36:37;;;;;;;7.77;7.07;;;;;;;25.51;58.76;100773.63;5067991;28;20480;-43
2023/07/16 08:39:07;;;;;;;7.67;6.83;;;;;;;25.17;57.07;100768.34;5067820;28;20422;-45
2023/07/16 08:41:36;;;;;;;9.23;7.53;;;;;;;25.29;59.79;100771.47;5068588;28;20587;-43
2023/07/16 08:44:07;;;;;;;9.37;7.50;;;;;;;25.19;60.47;100774.31;5069871;28;20469;-42
2023/07/16 08:46:41;;;;;;;7.97;7.17;;;;;;;24.68;63.22;100774.88;5070594;28;20462;-44
2023/07/16 08:49:12;;;;;;;7.50;6.90;;;;;;;24.60;63.28;100774.72;5062082;28;20450;-43
2023/07/16 08:51:42;;;;;;;8.20;7.60;;;;;;;24.33;64.38;100772.53;5064462;28;20453;-41
2023/07/16 08:54:11;;;;;;;7.80;7.00;;;;;;;24.39;64.19;100784.19;5058810;28;20435;-42
2023/07/16 08:56:39;;;;;;;8.23;7.27;;;;;;;24.11;67.44;100794.78;5057190;28;20454;-43
2023/07/16 08:59:09;;;;;;;9.50;8.00;;;;;;;24.31;69.40;100795.72;5068605;28;20494;-40
2023/07/16 09:01:41;;;;;;;7.03;6.43;;;;;;;24.36;69.76;100787.47;5049913;28;20817;-40
2023/07/16 09:04:09;;;;;;;10.20;8.10;;;;;;;24.87;68.22;100796.00;5060839;28;20476;-40
2023/07/16 09:06:37;;;;;;;8.20;7.40;;;;;;;24.68;68.79;100795.88;5067184;28;20446;-40
2023/07/16 09:09:05;;;;;;;6.60;6.10;;;;;;;24.37;70.42;100787.19;5059392;28;20423;-41
2023/07/16 09:11:34;;;;;;;7.07;6.43;;;;;;;24.26;71.58;100795.75;5065530;28;20426;-40
2023/07/16 09:14:02;;;;;;;8.13;7.10;;;;;;;24.66;71.13;100803.56;5068603;28;20434;-40
2023/07/16 09:16:34;;;;;;;7.23;6.50;;;;;;;24.95;69.29;100793.44;5063112;28;20496;-40
2023/07/16 09:19:08;;;;;;;6.83;6.17;;;;;;;25.00;68.98;100804.28;5067813;28;20426;-42
2023/07/16 09:21:37;;;;;;;9.10;7.07;;;;;;;24.65;68.21;100796.47;5068634;28;20787;-41
2023/07/16 09:24:08;;;;;;;9.07;6.83;;;;;;;24.35;71.29;100813.09;5065119;28;20554;-40
2023/07/16 09:26:37;;;;;;;7.57;6.83;;;;;;;23.99;72.66;100815.25;5068217;28;20453;-40
2023/07/16 09:29:07;;;;;;;6.67;6.17;;;;;;;23.90;74.17;100822.41;5067318;28;21119;-40
2023/07/16 09:31:36;;;;;;;9.77;6.40;;;;;;;24.04;75.68;100824.22;5067915;28;20426;-41
2023/07/16 09:34:04;;;;;;;8.50;6.80;;;;;;;24.38;72.84;100813.34;5068354;28;20483;-43
2023/07/16 09:36:32;;;;;;;6.70;6.03;;;;;;;24.56;72.97;100820.00;5067692;28;20835;-41
2023/07/16 09:39:00;;;;;;;6.90;6.30;;;;;;;24.94;72.83;100819.09;5013286;28;20462;-40
2023/07/16 09:41:29;;;;;;;6.63;6.03;;;;;;;25.14;68.88;100829.78;5042458;28;20836;-41
2023/07/16 09:43:57;;;;;;;7.10;6.00;;;;;;;25.58;70.09;100826.78;5070831;28;20429;-41
2023/07/16 09:46:25;;;;;;;8.27;5.37;;;;;;;25.78;66.00;100831.97;5070935;28;20430;-41
2023/07/16 09:48:54;;;;;;;9.60;5.80;;;;;;;26.14;64.99;100831.44;5070142;28;20426;-44
2023/07/16 09:51:22;;;;;;;7.70;6.90;;;;;;;25.94;64.33;100837.22;5070823;28;20552;-40
2023/07/16 09:53:52;;;;;;;7.57;6.70;;;;;;;25.74;62.64;100836.41;5070231;28;20430;-41
2023/07/16 09:56:21;;;;;;;7.87;6.57;;;;;;;26.20;65.09;100842.00;5046936;28;20822;-41
2023/07/16 09:58:50;;;;;;;7.43;6.73;;;;;;;26.35;66.40;100855.44;5042299;28;20458;-41
2023/07/16 10:01:21;;;;;;;9.10;6.70;;;;;;;26.52;63.27;100854.91;5070398;28;20426;-41
2023/07/16 10:03:50;;;;;;;6.40;5.83;;;;;;;26.50;63.47;100845.34;5069106;28;21012;-41
2023/07/16 10:06:19;;;;;;;7.10;6.53;;;;;;;26.19;63.25;100858.72;5069999;28;20940;-41
2023/07/16 10:08:50;;;;;;;7.97;6.90;;;;;;;25.58;62.85;100870.50;5068535;28;20532;-40
2023/07/16 10:11:19;;;;;;;7.23;6.53;;;;;;;25.27;64.94;100877.38;5070494;28;20429;-41
2023/07/16 10:13:50;;;;;;;12.40;7.00;;;;;;;25.51;64.70;100874.66;5068684;28;20491;-44
2023/07/16 10:16:22;;;;;;;8.93;7.07;;;;;;;25.43;65.71;100876.09;5070698;28;20913;-40
2023/07/16 10:18:53;;;;;;;6.70;6.20;;;;;;;25.15;67.75;100875.06;5038201;28;20454;-43
2023/07/16 10:21:25;;;;;;;6.97;6.37;;;;;;;25.01;69.57;100870.59;5058329;28;20443;-41
2023/07/16 10:23:59;;;;;;;7.37;6.83;;;;;;;24.72;70.55;100874.13;5068345;28;20460;-44
2023/07/16 10:26:29;;;;;;;6.53;6.07;;;;;;;24.19;76.52;100881.34;5070251;28;21040;-41
2023/07/16 10:28:56;;;;;;;6.83;6.23;;;;;;;23.96;84.08;100879.28;5070156;28;20461;-41
2023/07/16 10:31:26;;;;;;;9.03;6.63;;;;;;;23.82;82.99;100894.63;5069251;28;20436;-40
2023/07/16 10:34:00;;;;;;;7.70;6.93;;;;;;;23.89;84.53;100876.09;5069888;28;20426;-41
2023/07/16 10:36:29;;;;;;;7.80;7.20;;;;;;;24.00;80.33;100904.06;5068751;28;20546;-40
2023/07/16 10:39:03;;;;;;;8.53;6.57;;;;;;;24.38;79.75;100910.66;5069624;28;20508;-41
2023/07/16 10:41:32;;;;;;;9.50;6.40;;;;;;;24.72;78.04;100911.47;5059240;28;20492;-40
2023/07/16 10:43:59;;;;;;;8.70;7.70;;;;;;;24.83;74.91;100906.78;5056783;28;20506;-41
2023/07/16 10:46:28;;;;;;;7.17;6.47;;;;;;;24.91;67.70;100898.78;5066822;28;20473;-41
2023/07/16 10:48:55;;;;;;;6.57;6.03;;;;;;;25.06;67.51;100906.81;5067067;28;20449;-42
2023/07/16 10:51:26;;;;;;;7.10;6.40;;;;;;;25.47;65.64;100912.66;5033547;28;20503;-42
2023/07/16 10:53:57;;;;;;;7.97;7.00;;;;;;;25.55;65.12;100912.03;5078718;28;20426;-42
2023/07/16 10:56:25;;;;;;;8.07;7.17;;;;;;;24.92;64.42;100905.03;5067327;28;20426;-40
2023/07/16 10:58:53;;;;;;;6.77;6.13;;;;;;;25.50;65.48;100911.28;5065012;28;20427;-41
2023/07/16 11:01:21;;;;;;;8.70;6.80;;;;;;;25.57;64.87;100909.81;5057143;28;20459;-43
2023/07/16 11:03:49;;;;;;;7.17;6.57;;;;;;;25.95;64.92;100920.81;5052804;28;20469;-40
2023/07/16 11:06:19;;;;;;;6.20;5.50;;;;;;;26.44;63.50;100913.00;5061542;28;20534;-40
2023/07/16 11:08:47;;;;;;;7.27;6.57;;;;;;;26.46;59.19;100907.25;5070145;28;20460;-41
2023/07/16 11:11:16;;;;;;;9.80;6.50;;;;;;;26.92;58.67;100921.78;5057763;28;21005;-43
2023/07/16 11:13:44;;;;;;;6.10;5.60;;;;;;;26.72;56.85;100927.59;5065389;28;20577;-41
2023/07/16 11:16:16;;;;;;;6.43;5.90;;;;;;;26.74;58.11;100925.34;5068797;28;20464;-40
2023/07/16 11:18:45;;;;;;;6.17;5.60;;;;;;;26.76;57.17;100918.47;5068070;28;20980;-41
2023/07/16 11:21:13;;;;;;;7.70;6.23;;;;;;;26.38;57.41;100930.59;5067802;28;20469;-40
2023/07/16 11:23:40;;;;;;;7.07;6.00;;;;;;;25.83;58.76;100933.00;5041681;28;20480;-40
2023/07/16 11:26:09;;;;;;;6.60;6.03;;;;;;;25.61;61.31;100932.72;5068558;28;20883;-42
2023/07/16 11:28:39;;;;;;;12.67;7.67;;;;;;;25.62;63.84;100939.00;5067568;28;20515;-41